Annandale, Minnesota
Current Conditions -  °F | °C
As of 9:54 PM on Saturday 25 Oct 2014 (Local Time) from KMGG Reporting Station
Clear Clear  
Wind Chill:   Ceiling: Unl
Heat Index:   Visibility: 10mi
Dew Point:   Wind: 3mph
Humidity: 64%   Direction: 280°W
Pressure: 30.06"   Gusts: NA
Location:  45.26°N, 94.12°W
Report Text: KMGG 260254Z AUTO 28003KT 10SM CLR 06/00 A3006 RMK AO2 T00601004
Loading
Personal Weather Stations






























Interactive Weather Map
Tropical Storm Tracking
New forecast layout! Learn more

10-Day Weather Forecast

Advertisements
Track Severe Weather on mobile